Startpagina
METAR-TAF:

METAR-TAF

Vliegvelden :

Fort Richardson, Alaska, Verenigde Staten

breedte: 61-15-45N, lengte: 149-39-17W, hoogte: 115 m

Actueel weer

Dit bericht is 18 minuten geleden gemaakt, om 15:18 UTC
Wind 4 kt uit het zuiden
Temperatuur -3°C
Vochtigheid 93%
Druk 966 hPa
Zicht: 9.7 km
Geheel bewolkt op 700 ft
(lichte) ijskorrels, nevel

METAR: PAFR 111518Z AUTO 19004KT 6SM -PL BR OVC007 M03/M04 A2854 RMK AO2 SLP675

Tijdstip: 06:36 (15:36 UTC)


TAF: ontbreekt

Waarnemingen en weersverwachtingen van meer dan 4000 vliegvelden (METAR en TAF).

De beschikbare stations zijn de gele en rode punten op de kaart.

Ga met uw muis naar het station om de naam te zien.

Klik dan om waarnemingen en weersverwachtingen te zien.

kaart wijzigen: klik op de groene knoppen met een zwart kruis om in te zoomen, op de groene knop met een streepje om uit te zoomen of op de groene pijlen voor aangrenzende kaarten.


METAR-TAF: